Weather at Pruzhany Air Base

Public forecast

Using degrees Celsius for public forecast. Weather courtesy of forecast.io.

Closest aviation weather report (METAR) to Pruzhany Air Base

Report is more than 6 hours old.

Closest report is Brest Airport, 33.5 nm (62.0 km) SSW.

2024/07/21 13:00 (retrieved 11 hours ago)

UMBB 211300Z 10002MPS 9999 SCT053 28/09 Q1010 NOSIG

Closest aviation forecast (TAF) to Pruzhany Air Base

Closest forecast is Lublin Airport, 101.5 nm (188.0 km) SW.

2024/07/21 18:00 (retrieved 6 hours ago)

TAF EPLB 211730Z 2118/2218 VRB02KT CAVOK